Time;durP1;ratioP1;P1;durP2;ratioP2;P2;SDS_P1;SDS_P2;PMS_P1;PMS_P2;Temp;Humidity;BMP_temperature;BMP_pressure;BME280_temperature;BME280_humidity;BME280_pressure;Samples;Min_cycle;Max_cycle;Signal;HPM_P1;HPM_P2
2021/06/01 00:01:31;;;;;;;;;;;;;;;13.96;48.10;100478.97;1634880;85;21050;-82
2021/06/01 00:03:57;;;;;;;10.18;4.33;;;;;;;13.90;47.86;100479.64;1668741;83;20219;-81
2021/06/01 00:06:23;;;;;;;8.60;4.25;;;;;;;13.84;47.90;100472.36;1641323;85;21063;-82
2021/06/01 00:08:50;;;;;;;8.85;4.05;;;;;;;13.83;47.69;100480.02;1621247;86;21261;-80
2021/06/01 00:11:16;;;;;;;7.67;4.37;;;;;;;13.79;47.72;100477.36;1629234;86;21030;-81
2021/06/01 00:13:44;;;;;;;6.92;4.17;;;;;;;13.72;48.02;100479.02;1626373;86;21110;-81
2021/06/01 00:16:10;;;;;;;10.23;4.37;;;;;;;13.64;48.09;100472.75;1625693;86;21715;-80
2021/06/01 00:18:36;;;;;;;9.75;4.20;;;;;;;13.63;48.42;100472.91;1622893;86;21071;-80
2021/06/01 00:21:02;;;;;;;8.98;4.25;;;;;;;13.57;48.69;100467.77;1625379;86;21141;-80
2021/06/01 00:23:32;;;;;;;11.03;4.20;;;;;;;13.53;48.81;100466.47;1624857;86;21114;-81
2021/06/01 00:25:59;;;;;;;8.98;4.20;;;;;;;13.54;48.91;100469.43;1637992;86;21034;-80
2021/06/01 00:28:25;;;;;;;;;;;;;;;13.57;48.72;100468.27;1632180;86;21702;-81
2021/06/01 00:30:52;;;;;;;10.20;4.45;;;;;;;13.58;49.03;100462.80;1638859;86;20289;-80
2021/06/01 00:33:18;;;;;;;10.58;4.87;;;;;;;13.51;49.02;100468.95;1605748;86;21050;-81
2021/06/01 00:35:44;;;;;;;9.63;4.50;;;;;;;13.53;49.43;100469.12;1627316;85;21069;-81
2021/06/01 00:38:09;;;;;;;8.70;4.62;;;;;;;13.48;49.65;100468.77;1628505;86;21156;-79
2021/06/01 00:40:37;;;;;;;10.40;4.90;;;;;;;13.47;50.28;100467.13;1617213;86;20946;-82
2021/06/01 00:43:04;;;;;;;10.13;4.65;;;;;;;13.51;49.83;100468.95;1626709;86;21082;-80
2021/06/01 00:45:31;;;;;;;8.75;4.92;;;;;;;13.41;50.16;100458.52;1637288;85;21737;-81
2021/06/01 00:47:57;;;;;;;9.88;5.15;;;;;;;13.42;50.35;100465.46;1629476;85;21622;-83
2021/06/01 00:50:26;;;;;;;11.93;4.92;;;;;;;13.33;50.61;100471.73;1630570;86;21162;-82
2021/06/01 00:52:57;;;;;;;9.80;4.85;;;;;;;13.34;50.54;100468.95;1644221;85;21094;-79
2021/06/01 00:55:23;;;;;;;8.38;4.55;;;;;;;13.34;50.51;100468.13;1638068;85;22288;-80
2021/06/01 00:57:51;;;;;;;10.08;4.90;;;;;;;13.15;51.46;100462.12;1626513;86;21277;-79
2021/06/01 01:00:40;;;;;;;9.28;4.75;;;;;;;13.19;51.22;100466.11;1636132;85;21122;-80
2021/06/01 01:02:50;;;;;;;10.75;5.03;;;;;;;13.10;51.63;100463.95;1626488;86;21047;-81
2021/06/01 01:05:18;;;;;;;9.83;5.22;;;;;;;13.05;51.92;100457.47;1628248;86;20911;-81
2021/06/01 01:07:58;;;;;;;9.08;4.83;;;;;;;13.01;52.33;100462.79;1629621;86;21102;-80
2021/06/01 01:10:17;;;;;;;11.45;5.40;;;;;;;12.91;52.87;100462.44;1628786;86;22725;-79
2021/06/01 01:13:02;;;;;;;11.00;5.60;;;;;;;12.75;53.32;100453.98;1640357;86;27838;-79
2021/06/01 01:15:32;;;;;;;10.40;5.60;;;;;;;12.90;53.02;100456.80;1623068;86;21133;-80
2021/06/01 01:17:59;;;;;;;11.65;5.62;;;;;;;12.98;53.16;100458.63;1641730;85;21023;-80
2021/06/01 01:20:39;;;;;;;13.25;5.60;;;;;;;13.02;53.09;100457.80;1653226;85;21215;-80
2021/06/01 01:23:12;;;;;;;12.47;5.95;;;;;;;13.04;53.17;100457.98;1628693;86;21178;-81
2021/06/01 01:26:13;;;;;;;13.53;5.83;;;;;;;13.05;53.09;100458.31;1621702;86;21035;-82
2021/06/01 01:29:12;;;;;;;13.85;6.03;;;;;;;13.00;53.15;100458.47;1633216;85;21058;-80
2021/06/01 01:31:48;;;;;;;11.50;6.10;;;;;;;12.94;53.32;100451.98;1617412;86;21254;-81
2021/06/01 01:34:15;;;;;;;12.33;6.00;;;;;;;12.86;53.75;100454.13;1639379;86;21018;-82
2021/06/01 01:36:40;;;;;;;14.10;6.28;;;;;;;12.86;53.80;100448.83;1618511;86;21546;-80
2021/06/01 01:39:08;;;;;;;11.25;5.87;;;;;;;12.80;54.06;100450.81;1637087;86;21006;-83
2021/06/01 01:41:38;;;;;;;10.55;6.03;;;;;;;12.79;54.45;100453.15;1646685;85;21603;-81
2021/06/01 01:44:12;;;;;;;14.58;6.05;;;;;;;12.75;54.52;100453.13;1615766;86;21715;-80
2021/06/01 01:49:20;;;;;;;14.40;6.42;;;;;;;12.73;54.78;100449.83;1637058;85;21101;-81
2021/06/01 01:51:50;;;;;;;11.78;6.60;;;;;;;12.67;55.17;100453.13;1619776;86;21015;-81
2021/06/01 01:54:23;;;;;;;11.83;6.60;;;;;;;12.69;55.05;100443.18;1643874;86;21118;-81
2021/06/01 01:56:53;;;;;;;10.85;6.28;;;;;;;12.71;54.80;100442.55;1629334;86;21212;-79
2021/06/01 01:59:26;;;;;;;12.75;7.00;;;;;;;12.66;55.03;100440.85;1634521;85;21118;-80
2021/06/01 02:01:53;;;;;;;15.30;6.87;;;;;;;12.67;55.40;100450.47;1636230;86;21171;-81
2021/06/01 02:04:25;;;;;;;11.08;6.65;;;;;;;12.64;55.77;100448.97;1640901;86;21073;-81
2021/06/01 02:06:52;;;;;;;16.25;7.42;;;;;;;12.64;55.99;100450.80;1636052;84;21015;-80
2021/06/01 02:09:20;;;;;;;13.97;7.10;;;;;;;12.63;55.89;100443.35;1630553;86;21106;-80
2021/06/01 02:11:48;;;;;;;15.13;7.03;;;;;;;12.56;56.18;100443.16;1619006;86;21167;-81
2021/06/01 02:14:16;;;;;;;;;;;;;;;12.59;56.27;100444.66;1637961;86;21081;-80
2021/06/01 02:16:45;;;;;;;11.53;6.67;;;;;;;12.63;56.23;100445.16;1635524;86;20218;-80
2021/06/01 02:19:16;;;;;;;15.48;7.05;;;;;;;12.58;56.64;100444.31;1633147;86;21172;-80
2021/06/01 02:22:04;;;;;;;17.12;7.80;;;;;;;12.61;56.71;100448.47;1638939;86;21696;-79
2021/06/01 02:24:43;;;;;;;15.98;7.80;;;;;;;12.61;56.55;100443.17;1637084;84;21409;-82
2021/06/01 02:27:22;;;;;;;15.45;8.30;;;;;;;12.56;57.03;100444.48;1635729;86;21063;-79
2021/06/01 02:30:08;;;;;;;15.05;8.45;;;;;;;12.52;57.17;100439.66;1639044;85;21077;-78
2021/06/01 02:32:41;;;;;;;15.28;8.23;;;;;;;12.59;57.22;100434.56;1629389;86;21039;-79
2021/06/01 02:35:18;;;;;;;17.52;7.70;;;;;;;12.69;56.68;100437.41;1641717;86;21109;-80
2021/06/01 02:37:48;;;;;;;;;;;;;;;12.75;56.93;100439.88;1629176;86;21103;-79
2021/06/01 02:40:17;;;;;;;12.10;7.50;;;;;;;12.73;57.02;100432.09;1640930;84;20274;-78
2021/06/01 02:42:45;;;;;;;18.50;8.45;;;;;;;12.81;56.79;100438.41;1639244;86;21095;-80
2021/06/01 02:45:12;;;;;;;;;;;;;;;12.79;57.01;100438.57;1642973;85;21807;-80
2021/06/01 02:47:40;;;;;;;13.88;7.22;;;;;;;12.82;57.06;100435.59;1662361;84;20290;-78
2021/06/01 02:50:09;;;;;;;14.35;7.80;;;;;;;12.86;57.02;100434.25;1637885;84;21223;-78
2021/06/01 02:52:35;;;;;;;18.95;8.60;;;;;;;12.92;56.94;100426.16;1632371;86;21318;-79
2021/06/01 02:55:01;;;;;;;15.23;8.48;;;;;;;12.93;57.06;100432.62;1635559;86;21159;-79
2021/06/01 02:57:27;;;;;;;15.85;8.45;;;;;;;12.98;57.02;100433.95;1637284;86;21142;-79
2021/06/01 02:59:53;;;;;;;17.42;8.80;;;;;;;12.99;57.09;100434.27;1638477;86;21126;-82
2021/06/01 03:02:19;;;;;;;16.07;7.67;;;;;;;13.07;57.09;100430.31;1638825;85;21024;-79
2021/06/01 03:04:51;;;;;;;14.45;8.25;;;;;;;13.16;56.93;100434.63;1617525;86;21230;-79
2021/06/01 03:07:17;;;;;;;17.60;8.33;;;;;;;13.27;56.83;100431.62;1616648;87;21020;-81
2021/06/01 03:09:43;;;;;;;18.20;9.03;;;;;;;13.41;56.44;100434.64;1618283;87;20972;-83
2021/06/01 03:12:21;;;;;;;16.05;8.20;;;;;;;13.41;56.30;100430.66;1618809;88;21594;-81
2021/06/01 03:14:37;;;;;;;15.90;8.20;;;;;;;13.43;56.47;100437.95;1621208;86;21701;-82
2021/06/01 03:17:07;;;;;;;16.10;8.28;;;;;;;13.41;56.44;100434.64;1619040;87;21799;-81
2021/06/01 03:19:33;;;;;;;15.45;8.15;;;;;;;13.42;56.63;100432.30;1618518;87;21601;-82
2021/06/01 03:21:59;;;;;;;16.30;8.28;;;;;;;13.49;56.66;100429.31;1617769;88;22717;-82
2021/06/01 03:24:28;;;;;;;16.42;8.40;;;;;;;13.49;56.68;100427.98;1615565;87;20984;-81
2021/06/01 03:26:54;;;;;;;16.80;8.80;;;;;;;13.51;56.91;100429.15;1616987;87;21115;-81
2021/06/01 03:29:22;;;;;;;16.15;8.33;;;;;;;13.53;56.91;100429.32;1618385;87;21125;-81
2021/06/01 03:31:53;;;;;;;18.75;8.63;;;;;;;13.58;56.74;100428.30;1621171;87;21613;-80
2021/06/01 03:34:22;;;;;;;14.25;8.30;;;;;;;13.60;56.73;100430.79;1603706;87;21064;-82
2021/06/01 03:36:48;;;;;;;18.73;8.33;;;;;;;13.64;56.76;100425.45;1616474;87;21056;-81
2021/06/01 03:39:16;;;;;;;14.70;8.28;;;;;;;13.63;57.06;100423.31;1643474;85;21159;-81
2021/06/01 03:41:43;;;;;;;14.98;8.03;;;;;;;13.63;57.22;100423.31;1640085;87;21137;-80
2021/06/01 03:44:09;;;;;;;17.98;8.65;;;;;;;13.71;57.24;100422.47;1616816;88;21163;-82
2021/06/01 03:46:35;;;;;;;18.60;9.03;;;;;;;13.66;57.50;100420.83;1617030;87;21060;-82
2021/06/01 03:49:00;;;;;;;16.57;8.05;;;;;;;13.60;57.64;100418.34;1619300;87;20936;-82
2021/06/01 03:51:29;;;;;;;14.60;7.97;;;;;;;13.63;57.74;100420.66;1617726;87;21035;-80
2021/06/01 03:53:55;;;;;;;16.60;9.08;;;;;;;13.59;57.86;100418.00;1617103;87;21917;-81
2021/06/01 03:56:21;;;;;;;18.45;8.45;;;;;;;13.67;57.70;100425.62;1618502;87;21110;-81
2021/06/01 03:58:48;;;;;;;17.10;8.40;;;;;;;13.77;57.68;100416.47;1602113;88;21244;-81
2021/06/01 04:01:14;;;;;;;;;;;;;;;13.91;57.35;100419.44;1617917;87;21080;-81
2021/06/01 04:03:41;;;;;;;20.05;9.15;;;;;;;13.80;57.57;100412.66;1617889;87;20203;-82
2021/06/01 04:06:14;;;;;;;16.70;8.55;;;;;;;13.76;57.32;100419.30;1618221;87;21403;-82
2021/06/01 04:08:42;;;;;;;15.50;8.35;;;;;;;13.69;57.52;100416.98;1618236;88;21624;-82
2021/06/01 04:11:07;;;;;;;;;;;;;;;13.63;57.65;100414.53;1624169;86;21095;-82
2021/06/01 04:13:34;;;;;;;16.45;8.95;;;;;;;13.62;57.77;100418.98;1620488;87;20232;-82
2021/06/01 04:16:01;;;;;;;16.62;9.08;;;;;;;13.65;57.94;100414.67;1617705;87;21687;-82
2021/06/01 04:18:32;;;;;;;15.20;8.83;;;;;;;13.62;58.22;100407.05;1618263;86;21149;-82
2021/06/01 04:21:00;;;;;;;16.70;8.50;;;;;;;13.74;58.00;100410.69;1617148;87;21190;-81
2021/06/01 04:23:26;;;;;;;15.68;8.63;;;;;;;13.81;57.96;100407.19;1618443;87;21278;-80
2021/06/01 04:25:52;;;;;;;16.57;8.88;;;;;;;13.84;57.95;100408.65;1616567;87;21699;-82
2021/06/01 04:28:21;;;;;;;16.27;9.23;;;;;;;13.80;58.04;100417.97;1616382;87;21652;-82
2021/06/01 04:30:47;;;;;;;17.52;9.38;;;;;;;13.75;58.08;100412.33;1616642;87;21770;-81
2021/06/01 04:33:13;;;;;;;18.90;10.13;;;;;;;13.68;57.97;100419.33;1600878;88;21109;-81
2021/06/01 04:35:39;;;;;;;15.45;9.23;;;;;;;13.76;57.97;100414.81;1617351;87;20901;-80
2021/06/01 04:38:05;;;;;;;20.02;9.53;;;;;;;13.83;57.54;100409.67;1618273;87;21192;-82
2021/06/01 04:40:31;;;;;;;19.12;9.23;;;;;;;13.79;57.75;100406.50;1618293;87;21632;-81
2021/06/01 04:42:57;;;;;;;16.95;8.90;;;;;;;13.59;58.01;100414.02;1618534;87;21111;-81
2021/06/01 04:45:23;;;;;;;18.52;9.30;;;;;;;13.52;58.58;100413.57;1617599;87;20961;-80
2021/06/01 04:47:49;;;;;;;15.75;8.48;;;;;;;13.57;58.82;100416.03;1620758;87;21179;-79
2021/06/01 04:50:16;;;;;;;15.93;8.83;;;;;;;13.63;59.08;100418.00;1621237;87;21176;-81
2021/06/01 04:52:41;;;;;;;16.45;8.78;;;;;;;13.64;59.19;100424.13;1623391;87;21768;-81
2021/06/01 04:55:10;;;;;;;16.57;8.33;;;;;;;13.74;58.66;100413.34;1644969;86;21708;-79
2021/06/01 04:57:39;;;;;;;15.45;8.43;;;;;;;13.84;59.19;100409.98;1618584;87;21107;-81
2021/06/01 05:00:10;;;;;;;14.25;8.05;;;;;;;13.87;59.51;100410.14;1617538;87;21164;-80
2021/06/01 05:02:36;;;;;;;13.20;7.42;;;;;;;13.89;59.46;100408.98;1615859;87;21129;-80
2021/06/01 05:05:05;;;;;;;16.67;8.40;;;;;;;13.96;59.43;100409.94;1618318;88;20920;-80
2021/06/01 05:07:32;;;;;;;21.23;8.33;;;;;;;13.77;60.36;100408.52;1636469;86;21874;-78
2021/06/01 05:10:02;;;;;;;14.75;7.72;;;;;;;13.87;60.36;100405.65;1669904;83;21051;-79
2021/06/01 05:12:28;;;;;;;13.45;7.90;;;;;;;13.93;60.14;100420.08;1637995;85;21720;-80
2021/06/01 05:14:55;;;;;;;15.03;8.00;;;;;;;13.91;60.43;100416.27;1639085;86;21631;-78
2021/06/01 05:17:21;;;;;;;14.07;7.83;;;;;;;14.02;60.15;100416.91;1635790;86;21103;-78
2021/06/01 05:19:46;;;;;;;16.20;7.90;;;;;;;14.14;59.92;100419.51;1635129;85;21146;-81
2021/06/01 05:22:16;;;;;;;17.07;8.53;;;;;;;14.24;59.68;100422.77;1642360;86;21019;-79
2021/06/01 05:24:43;;;;;;;18.95;8.03;;;;;;;14.28;59.21;100417.95;1639206;86;21025;-80
2021/06/01 05:27:09;;;;;;;20.30;8.65;;;;;;;14.38;59.28;100419.05;1618227;86;21582;-80
2021/06/01 05:29:41;;;;;;;17.20;7.67;;;;;;;14.43;59.25;100422.01;1633757;85;21102;-77
2021/06/01 05:32:24;;;;;;;22.52;8.10;;;;;;;14.46;59.14;100417.67;1635875;83;21165;-77
2021/06/01 05:34:37;;;;;;;15.13;7.53;;;;;;;14.53;59.07;100423.95;1640755;83;21098;-84
2021/06/01 05:37:05;;;;;;;15.55;7.22;;;;;;;14.58;59.33;100421.59;1642373;84;21020;-78
2021/06/01 05:39:31;;;;;;;14.28;7.35;;;;;;;14.64;59.21;100420.92;1637981;84;21129;-81
2021/06/01 05:41:57;;;;;;;19.15;8.10;;;;;;;14.74;59.33;100423.84;1638596;86;21051;-81
2021/06/01 05:44:28;;;;;;;16.00;6.87;;;;;;;14.71;59.54;100427.20;1666963;83;21115;-81
2021/06/01 05:46:56;;;;;;;14.63;7.28;;;;;;;14.78;59.55;100419.84;1638381;85;21051;-78
2021/06/01 05:49:23;;;;;;;;;;;;;;;14.92;59.20;100430.22;1627359;86;21063;-79
2021/06/01 05:51:49;;;;;;;19.15;7.25;;;;;;;14.95;59.30;100425.36;1642460;85;20626;-84
2021/06/01 05:54:15;;;;;;;20.23;7.95;;;;;;;14.84;59.50;100429.77;1621624;86;21094;-81
2021/06/01 05:56:40;;;;;;;18.15;8.13;;;;;;;14.75;59.99;100429.50;1635470;85;21770;-79
2021/06/01 05:59:08;;;;;;;15.15;8.10;;;;;;;14.75;60.23;100423.67;1618739;86;21951;-78
2021/06/01 06:01:36;;;;;;;15.18;7.10;;;;;;;14.83;59.99;100429.44;1639532;86;21059;-82
2021/06/01 06:04:05;;;;;;;14.73;7.22;;;;;;;14.94;60.24;100426.86;1639920;86;21678;-81
2021/06/01 06:06:32;;;;;;;21.52;8.50;;;;;;;15.13;59.64;100421.55;1669592;83;21118;-80
2021/06/01 06:08:58;;;;;;;16.65;8.75;;;;;;;15.16;59.64;100426.52;1630310;86;21803;-79
2021/06/01 06:11:23;;;;;;;19.62;9.80;;;;;;;15.18;59.77;100427.16;1627424;86;21083;-80
2021/06/01 06:13:56;;;;;;;16.40;8.23;;;;;;;15.12;59.56;100426.53;1645859;85;20959;-77
2021/06/01 06:16:22;;;;;;;23.10;8.53;;;;;;;15.18;59.74;100424.01;1624136;86;21156;-82
2021/06/01 06:18:54;;;;;;;15.00;7.50;;;;;;;15.22;60.23;100427.13;1620851;86;20999;-84
2021/06/01 06:21:21;;;;;;;20.68;7.55;;;;;;;15.31;60.24;100431.38;1598994;86;21566;-87
2021/06/01 06:23:47;;;;;;;16.97;7.73;;;;;;;15.37;60.20;100431.16;1635651;86;21163;-81
2021/06/01 06:26:12;;;;;;;16.45;7.08;;;;;;;15.55;59.54;100432.98;1626434;85;21003;-86
2021/06/01 06:28:38;;;;;;;19.17;6.65;;;;;;;15.56;59.69;100433.28;1639444;85;20924;-77
2021/06/01 06:31:05;;;;;;;16.10;6.03;;;;;;;15.67;59.65;100432.02;1641280;85;21169;-82
2021/06/01 06:33:38;;;;;;;17.67;6.53;;;;;;;15.84;59.70;100431.88;1640953;85;21170;-83
2021/06/01 06:36:05;;;;;;;24.25;6.97;;;;;;;16.00;58.47;100431.67;1620702;86;21117;-77
2021/06/01 06:38:33;;;;;;;20.20;6.50;;;;;;;16.09;58.42;100435.89;1640780;85;21603;-79
2021/06/01 06:43:31;;;;;;;19.37;6.58;;;;;;;16.23;57.32;100426.23;1643117;86;21106;-78
2021/06/01 06:46:01;;;;;;;17.45;6.35;;;;;;;16.29;57.58;100428.14;1636318;86;21663;-82
2021/06/01 06:48:29;;;;;;;23.65;6.70;;;;;;;16.46;57.37;100419.94;1632841;86;22325;-79
2021/06/01 06:50:56;;;;;;;14.93;5.70;;;;;;;16.44;57.17;100422.80;1639328;85;21050;-79
2021/06/01 06:53:22;;;;;;;20.75;6.00;;;;;;;16.50;57.19;100419.38;1641798;85;21098;-79
2021/06/01 06:55:49;;;;;;;18.87;6.28;;;;;;;16.61;56.85;100422.55;1636536;85;20998;-78
2021/06/01 06:58:16;;;;;;;17.73;6.33;;;;;;;16.72;56.78;100418.06;1638135;85;21133;-79
2021/06/01 07:00:42;;;;;;;19.05;5.40;;;;;;;16.83;56.67;100417.55;1645481;85;21116;-81
2021/06/01 07:03:07;;;;;;;12.88;5.45;;;;;;;16.97;56.19;100419.86;1620809;86;21382;-76
2021/06/01 07:05:34;;;;;;;16.35;5.40;;;;;;;17.07;56.26;100412.86;1647047;85;20947;-78
2021/06/01 07:08:00;;;;;;;17.30;5.62;;;;;;;17.17;55.86;100416.55;1648643;85;21097;-78
2021/06/01 07:10:28;;;;;;;16.60;5.17;;;;;;;17.31;55.67;100414.78;1624489;86;22648;-81
2021/06/01 07:12:54;;;;;;;16.17;5.62;;;;;;;17.46;55.54;100418.19;1622234;85;21083;-82
2021/06/01 07:15:29;;;;;;;20.32;5.10;;;;;;;17.48;55.15;100409.98;1624593;86;21379;-79
2021/06/01 07:17:59;;;;;;;17.62;5.47;;;;;;;17.62;54.52;100412.23;1640666;85;21120;-81
2021/06/01 07:20:30;;;;;;;12.70;5.25;;;;;;;17.65;54.48;100413.17;1643141;85;21092;-78
2021/06/01 07:22:57;;;;;;;18.27;4.83;;;;;;;17.74;54.36;100417.34;1644536;86;21650;-79
2021/06/01 07:25:23;;;;;;;13.50;5.45;;;;;;;17.87;53.89;100415.27;1644804;86;21104;-77
2021/06/01 07:27:50;;;;;;;14.55;4.90;;;;;;;17.97;53.58;100410.92;1647614;85;21006;-79
2021/06/01 07:30:18;;;;;;;15.43;5.00;;;;;;;17.93;53.96;100422.00;1638528;85;21110;-78
2021/06/01 07:32:45;;;;;;;15.08;4.72;;;;;;;17.98;53.96;100413.92;1640048;86;21090;-85
2021/06/01 07:35:11;;;;;;;10.38;4.50;;;;;;;18.17;53.34;100414.50;1641099;86;21857;-79
2021/06/01 07:37:39;;;;;;;14.70;4.78;;;;;;;18.22;52.36;100414.72;1637078;86;21173;-80
2021/06/01 07:40:07;;;;;;;14.78;5.12;;;;;;;18.29;51.45;100408.08;1647713;85;21131;-75
2021/06/01 07:42:34;;;;;;;15.10;5.50;;;;;;;18.37;51.72;100404.40;1646926;85;21046;-77
2021/06/01 07:45:06;;;;;;;17.48;4.67;;;;;;;18.51;51.77;100406.59;1645282;86;21121;-76
2021/06/01 07:47:34;;;;;;;11.88;4.58;;;;;;;18.57;51.79;100402.59;1642581;86;21849;-80
2021/06/01 07:50:01;;;;;;;17.52;4.60;;;;;;;18.65;51.87;100400.24;1646086;85;21027;-75
2021/06/01 07:52:28;;;;;;;22.30;5.15;;;;;;;18.61;51.74;100407.86;1640804;86;21607;-79
2021/06/01 07:54:56;;;;;;;15.83;4.55;;;;;;;18.63;50.79;100403.13;1647712;86;21151;-81
2021/06/01 07:57:22;;;;;;;19.15;4.72;;;;;;;18.76;50.49;100400.16;1640652;86;21138;-78
2021/06/01 07:59:48;;;;;;;13.30;4.33;;;;;;;18.90;50.68;100405.86;1622437;86;21679;-79
2021/06/01 08:02:14;;;;;;;12.15;4.53;;;;;;;19.05;50.74;100404.33;1619589;85;21089;-78
2021/06/01 08:04:41;;;;;;;15.13;4.28;;;;;;;19.13;49.69;100400.09;1634289;86;21655;-80
2021/06/01 08:07:13;;;;;;;17.70;4.47;;;;;;;19.17;49.94;100408.53;1634812;85;22296;-78
2021/06/01 08:09:38;;;;;;;16.75;4.65;;;;;;;19.25;49.90;100394.95;1637847;85;20999;-80
2021/06/01 08:12:07;;;;;;;9.33;3.85;;;;;;;19.36;49.76;100402.35;1639188;85;22030;-79
2021/06/01 08:14:33;;;;;;;14.43;4.12;;;;;;;19.34;48.39;100401.75;1619376;85;21145;-77
2021/06/01 08:17:03;;;;;;;12.73;4.10;;;;;;;19.32;45.92;100403.78;1636154;85;21584;-79
2021/06/01 08:19:37;;;;;;;9.78;3.05;;;;;;;19.43;45.77;100403.67;1630449;85;21183;-82
2021/06/01 08:24:42;;;;;;;10.30;3.33;;;;;;;19.60;43.17;100400.04;1634684;86;21114;-79
2021/06/01 08:27:11;;;;;;;11.43;3.70;;;;;;;19.70;44.20;100400.44;1633154;86;21067;-82
2021/06/01 08:29:38;;;;;;;10.98;3.80;;;;;;;19.78;44.87;100398.08;1631617;85;22357;-82
2021/06/01 08:32:05;;;;;;;9.95;4.22;;;;;;;19.69;45.94;100401.46;1634695;86;21099;-79
2021/06/01 08:34:31;;;;;;;10.13;3.80;;;;;;;19.66;46.36;100396.52;1632308;85;21140;-78
2021/06/01 08:37:03;;;;;;;8.83;3.52;;;;;;;19.71;46.35;100399.38;1642724;86;21978;-81
2021/06/01 08:39:30;;;;;;;13.05;3.83;;;;;;;19.83;46.19;100392.08;1641925;85;21077;-82
2021/06/01 08:41:57;;;;;;;11.63;4.15;;;;;;;19.69;45.28;100396.09;1618889;86;21164;-79
2021/06/01 08:44:27;;;;;;;11.60;3.65;;;;;;;19.52;45.58;100368.94;1639807;85;21078;-80
2021/06/01 08:46:57;;;;;;;7.20;3.05;;;;;;;19.71;45.47;100390.53;1638764;85;21162;-80
2021/06/01 08:49:26;;;;;;;12.23;3.10;;;;;;;19.63;43.01;100384.88;1636161;86;21774;-81
2021/06/01 08:51:51;;;;;;;8.83;3.40;;;;;;;19.73;43.90;100384.44;1636846;86;21119;-78
2021/06/01 08:54:24;;;;;;;11.00;3.20;;;;;;;19.72;43.13;100389.51;1642892;85;20954;-83
2021/06/01 08:56:52;;;;;;;11.18;2.95;;;;;;;19.70;43.38;100389.72;1636018;85;21126;-83
2021/06/01 08:59:21;;;;;;;10.32;2.87;;;;;;;19.62;43.39;100384.56;1635382;85;21138;-82
2021/06/01 09:01:51;;;;;;;10.28;3.20;;;;;;;19.72;43.41;100379.60;1636008;86;21027;-82
2021/06/01 09:04:16;;;;;;;8.90;2.87;;;;;;;19.67;42.54;100382.10;1632706;85;21014;-82
2021/06/01 09:06:59;;;;;;;9.53;2.50;;;;;;;19.78;42.02;100378.47;1642780;85;20951;-82
2021/06/01 09:09:45;;;;;;;5.15;2.33;;;;;;;19.82;41.10;100379.71;1632898;85;21092;-82
2021/06/01 09:12:30;;;;;;;5.62;2.15;;;;;;;19.75;38.80;100379.71;1633923;85;21050;-80
2021/06/01 09:23:02;;;;;;;6.67;1.87;;;;;;;19.87;37.19;100373.19;1628978;86;21044;-80
2021/06/01 09:25:38;;;;;;;7.33;2.08;;;;;;;19.99;37.75;100374.17;1625276;86;21131;-75
2021/06/01 09:28:03;;;;;;;5.00;2.10;;;;;;;20.06;37.69;100374.97;1632323;86;21633;-79
2021/06/01 09:30:51;;;;;;;3.85;1.80;;;;;;;20.09;36.83;100367.84;1635634;85;38826;-75
2021/06/01 09:33:22;;;;;;;5.20;1.82;;;;;;;20.17;36.71;100365.97;1633149;85;21064;-79
2021/06/01 09:36:01;;;;;;;6.83;1.80;;;;;;;20.30;36.30;100371.23;1641917;86;21107;-77
2021/06/01 09:38:33;;;;;;;6.10;1.98;;;;;;;20.47;36.96;100372.08;1629113;85;22003;-79
2021/06/01 09:41:14;;;;;;;6.17;2.12;;;;;;;20.65;36.51;100367.33;1656465;84;21091;-78
2021/06/01 09:44:04;;;;;;;5.67;2.00;;;;;;;20.76;37.01;100370.68;1665518;84;21114;-79
2021/06/01 09:46:39;;;;;;;7.90;2.22;;;;;;;20.92;37.51;100371.46;1661248;84;21114;-75
2021/06/01 09:49:21;;;;;;;4.80;2.02;;;;;;;21.03;37.65;100376.64;1631042;86;21087;-78
2021/06/01 09:51:58;;;;;;;6.47;1.95;;;;;;;21.02;35.42;100369.65;1630806;86;21103;-78
2021/06/01 09:54:41;;;;;;;4.83;1.90;;;;;;;21.08;36.12;100366.05;1633238;85;21099;-78
2021/06/01 09:57:24;;;;;;;4.55;2.05;;;;;;;21.17;36.34;100363.92;1636735;86;21167;-76
2021/06/01 10:00:19;;;;;;;6.65;2.30;;;;;;;21.26;35.95;100365.81;1671640;84;21065;-79
2021/06/01 10:02:45;;;;;;;5.15;2.30;;;;;;;21.33;36.36;100373.27;1634025;84;21151;-89
2021/06/01 10:05:18;;;;;;;8.88;2.12;;;;;;;21.45;36.02;100363.96;1636182;86;21135;-83
2021/06/01 10:07:45;;;;;;;7.37;2.20;;;;;;;21.60;36.37;100364.45;1635737;85;21100;-79
2021/06/01 10:10:18;;;;;;;7.12;2.40;;;;;;;21.71;37.15;100370.95;1636121;86;21096;-80
2021/06/01 10:12:49;;;;;;;4.83;2.25;;;;;;;21.74;36.61;100370.50;1638224;86;21195;-76
2021/06/01 10:15:17;;;;;;;3.87;1.92;;;;;;;21.78;36.59;100369.52;1632383;85;21242;-76
2021/06/01 10:17:45;;;;;;;7.72;2.20;;;;;;;21.81;36.01;100367.22;1624096;86;21138;-78
2021/06/01 10:20:12;;;;;;;4.58;2.00;;;;;;;21.83;35.88;100371.84;1634864;85;21053;-76
2021/06/01 10:22:40;;;;;;;6.00;2.05;;;;;;;21.83;35.30;100367.80;1635642;85;21110;-83
2021/06/01 10:25:08;;;;;;;9.80;2.10;;;;;;;21.86;35.12;100372.73;1638034;85;21109;-77
2021/06/01 10:27:35;;;;;;;;;;;;;;;21.92;35.43;100370.17;1641016;86;21624;-79
2021/06/01 10:30:06;;;;;;;5.08;1.90;;;;;;;21.94;35.48;100368.91;1632783;85;20638;-76
2021/06/01 10:32:35;;;;;;;7.85;2.20;;;;;;;21.98;35.32;100362.02;1629642;86;21038;-82
2021/06/01 10:35:04;;;;;;;4.45;2.20;;;;;;;21.88;35.73;100371.16;1645893;85;21018;-80
2021/06/01 10:44:03;;;;;;;8.40;2.80;;;;;;;21.87;39.21;100367.62;1630817;86;21078;-82
2021/06/01 10:48:51;;;;;;;6.25;2.60;;;;;;;22.03;38.49;100358.65;1594319;86;20947;-83
2021/06/01 10:51:27;;;;;;;5.60;2.27;;;;;;;22.13;38.54;100358.94;1628183;86;21034;-82
2021/06/01 10:53:40;;;;;;;6.35;2.30;;;;;;;22.22;38.41;100357.58;1633489;86;22156;-86
2021/06/01 10:56:10;;;;;;;5.62;2.50;;;;;;;22.35;37.70;100359.81;1641133;85;21457;-84
2021/06/01 10:58:44;;;;;;;5.78;2.47;;;;;;;22.39;37.21;100356.97;1636940;85;21169;-84
2021/06/01 11:04:17;;;;;;;6.25;2.40;;;;;;;22.53;36.90;100355.72;1643070;85;21182;-83
2021/06/01 11:07:09;;;;;;;7.25;2.50;;;;;;;22.13;35.16;100356.78;1648963;85;21147;-84
2021/06/01 11:09:51;;;;;;;5.45;2.27;;;;;;;21.92;35.02;100354.05;1639176;85;22570;-81
2021/06/01 11:12:28;;;;;;;6.05;2.10;;;;;;;21.95;34.90;100358.97;1637678;85;21152;-82
2021/06/01 11:14:59;;;;;;;6.47;2.02;;;;;;;22.03;35.20;100351.42;1632604;86;21707;-83
2021/06/01 11:17:41;;;;;;;5.78;1.90;;;;;;;22.11;35.36;100360.20;1640978;86;21154;-78
2021/06/01 11:20:15;;;;;;;7.17;2.00;;;;;;;22.16;35.25;100354.45;1632579;86;21118;-83
2021/06/01 11:23:13;;;;;;;5.87;2.02;;;;;;;22.24;34.96;100358.16;1639000;86;21146;-84
2021/06/01 11:33:43;;;;;;;4.37;2.08;;;;;;;22.60;34.59;100347.53;1638434;86;21016;-84
2021/06/01 11:36:17;;;;;;;4.90;1.90;;;;;;;22.66;33.90;100343.11;1669452;83;21186;-88
2021/06/01 11:39:00;;;;;;;7.20;1.90;;;;;;;22.72;34.04;100344.33;1631181;86;21090;-84
2021/06/01 11:44:27;;;;;;;3.77;1.90;;;;;;;22.76;33.77;100347.38;1633238;86;21193;-85
2021/06/01 11:47:25;;;;;;;;;;;;;;;;;;;;;
2021/06/01 11:52:35;;;;;;;5.50;1.90;;;;;;;22.44;33.13;100354.41;1633386;86;21433;-88
2021/06/01 11:55:05;;;;;;;4.97;2.08;;;;;;;22.41;33.38;100353.52;1634378;86;21076;-88
2021/06/01 12:01:59;;;;;;;5.33;1.90;;;;;;;22.38;33.29;100358.02;1618496;86;21683;-84
2021/06/01 12:14:01;;;;;;;4.08;1.90;;;;;;;21.75;34.20;100362.74;1633482;85;21144;-88
2021/06/01 12:19:16;;;;;;;5.22;1.87;;;;;;;21.85;34.28;100360.33;1630955;86;21065;-86
2021/06/01 12:21:50;;;;;;;4.33;2.20;;;;;;;21.96;34.91;100358.74;1636212;85;21784;-86
2021/06/01 12:24:20;;;;;;;5.87;2.12;;;;;;;21.90;34.57;100365.02;1661856;83;21790;-86
2021/06/01 12:27:15;;;;;;;4.62;2.20;;;;;;;21.82;34.30;100363.47;1633603;86;21779;-85
2021/06/01 12:32:31;;;;;;;3.33;1.70;;;;;;;21.60;34.45;100360.95;1631946;86;20971;-87
2021/06/01 12:35:47;;;;;;;6.17;2.00;;;;;;;21.61;34.90;100357.20;1636593;84;21199;-84
2021/06/01 12:44:03;;;;;;;;;;;;;;;;;;;;;
2021/06/01 12:46:36;;;;;;;;;;;;;;;;;;;;;